createdAt,value
2018-05-06T00:02:02.638Z,17.10
2018-05-06T00:04:28.711Z,17.10
2018-05-06T00:06:54.908Z,17.10
2018-05-06T00:09:21.049Z,17.00
2018-05-06T00:11:47.051Z,17.00
2018-05-06T00:14:13.125Z,16.80
2018-05-06T00:16:39.273Z,16.80
2018-05-06T00:19:05.272Z,16.90
2018-05-06T00:21:31.263Z,16.90
2018-05-06T00:23:57.384Z,16.80
2018-05-06T00:26:23.469Z,16.60
2018-05-06T00:28:49.741Z,16.60
2018-05-06T00:31:16.740Z,16.60
2018-05-06T00:33:42.920Z,16.50
2018-05-06T00:36:09.613Z,16.50
2018-05-06T00:38:35.664Z,16.60
2018-05-06T00:41:01.784Z,16.50
2018-05-06T00:43:27.843Z,16.30
2018-05-06T00:45:53.859Z,16.20
2018-05-06T00:48:19.937Z,16.00
2018-05-06T00:50:45.988Z,16.00
2018-05-06T00:53:12.091Z,16.00
2018-05-06T00:55:38.199Z,15.90
2018-05-06T00:58:04.448Z,15.90
2018-05-06T01:00:30.473Z,15.90
2018-05-06T01:02:56.614Z,15.90
2018-05-06T01:05:23.229Z,15.90
2018-05-06T01:07:50.314Z,15.80
2018-05-06T01:10:16.334Z,15.80
2018-05-06T01:12:42.340Z,15.80
2018-05-06T01:15:08.383Z,15.90
2018-05-06T01:17:34.420Z,15.90
2018-05-06T01:20:00.498Z,15.90
2018-05-06T01:22:26.512Z,16.00
2018-05-06T01:24:52.539Z,16.00
2018-05-06T01:27:18.592Z,16.00
2018-05-06T01:29:44.588Z,15.90
2018-05-06T01:32:10.560Z,16.00
2018-05-06T01:34:36.528Z,16.00
2018-05-06T01:37:02.604Z,16.20
2018-05-06T01:39:28.619Z,16.20
2018-05-06T01:41:54.658Z,16.20
2018-05-06T01:44:20.631Z,16.30
2018-05-06T01:46:46.671Z,16.20
2018-05-06T01:49:12.680Z,16.10
2018-05-06T01:51:39.000Z,16.10
2018-05-06T01:54:05.971Z,15.70
2018-05-06T01:56:31.987Z,15.70
2018-05-06T01:58:57.968Z,15.60
2018-05-06T02:01:23.945Z,15.50
2018-05-06T02:03:50.097Z,15.50
2018-05-06T02:06:16.105Z,15.50
2018-05-06T02:08:42.171Z,15.60
2018-05-06T02:11:08.286Z,15.50
2018-05-06T02:13:34.236Z,15.50
2018-05-06T02:16:00.306Z,15.60
2018-05-06T02:18:26.332Z,15.80
2018-05-06T02:20:52.307Z,15.90
2018-05-06T02:23:18.293Z,15.90
2018-05-06T02:25:44.300Z,15.90
2018-05-06T02:28:10.305Z,15.90
2018-05-06T02:30:36.335Z,15.90
2018-05-06T02:33:02.353Z,15.80
2018-05-06T02:35:28.347Z,15.70
2018-05-06T02:37:54.447Z,15.70
2018-05-06T02:40:20.465Z,15.70
2018-05-06T02:42:46.440Z,15.80
2018-05-06T02:45:12.401Z,15.70
2018-05-06T02:47:38.392Z,15.60
2018-05-06T02:50:04.380Z,15.60
2018-05-06T02:52:30.435Z,15.40
2018-05-06T02:54:56.817Z,15.30
2018-05-06T02:57:22.922Z,15.30
2018-05-06T02:59:48.983Z,15.30
2018-05-06T03:02:14.954Z,15.50
2018-05-06T03:04:40.969Z,15.60
2018-05-06T03:07:06.979Z,15.60
2018-05-06T03:09:32.998Z,15.50
2018-05-06T03:11:59.148Z,15.40
2018-05-06T03:14:25.054Z,15.40
2018-05-06T03:16:51.071Z,15.50
2018-05-06T03:19:17.095Z,15.40
2018-05-06T03:21:43.131Z,15.30
2018-05-06T03:24:09.211Z,15.40
2018-05-06T03:26:35.302Z,15.40
2018-05-06T03:29:20.379Z,15.20
2018-05-06T03:31:46.382Z,15.10
2018-05-06T03:34:12.526Z,15.20
2018-05-06T03:36:38.534Z,15.20
2018-05-06T03:39:04.638Z,15.10
2018-05-06T03:41:30.644Z,15.10
2018-05-06T03:43:56.768Z,14.90
2018-05-06T03:46:23.101Z,14.90
2018-05-06T03:48:49.145Z,14.90
2018-05-06T03:51:15.215Z,14.80
2018-05-06T03:53:41.203Z,14.80
2018-05-06T03:59:28.916Z,14.70
2018-05-06T04:01:56.964Z,14.60
2018-05-06T04:04:22.948Z,14.50
2018-05-06T04:06:48.995Z,14.50
2018-05-06T04:09:15.031Z,14.60
2018-05-06T04:11:41.012Z,14.50
2018-05-06T04:14:07.026Z,14.70
2018-05-06T04:16:32.993Z,14.70
2018-05-06T04:18:59.025Z,14.50
2018-05-06T04:21:25.020Z,14.60
2018-05-06T04:23:51.012Z,14.60
2018-05-06T04:26:17.054Z,14.60
2018-05-06T04:28:43.034Z,14.60
2018-05-06T04:31:09.072Z,14.70
2018-05-06T04:33:35.167Z,14.80
2018-05-06T04:36:01.228Z,14.70
2018-05-06T04:38:27.250Z,14.60
2018-05-06T04:40:53.208Z,14.60
2018-05-06T04:43:19.240Z,14.60
2018-05-06T04:45:45.292Z,14.70
2018-05-06T04:48:11.297Z,14.60
2018-05-06T04:50:38.262Z,14.70
2018-05-06T04:53:04.312Z,14.60
2018-05-06T04:55:30.322Z,14.60
2018-05-06T04:57:56.324Z,14.60
2018-05-06T05:00:22.321Z,14.60
2018-05-06T05:02:48.344Z,14.60
2018-05-06T05:05:14.353Z,14.60
2018-05-06T05:07:40.316Z,14.70
2018-05-06T05:10:06.398Z,14.80
2018-05-06T05:12:35.787Z,14.80
2018-05-06T05:15:01.843Z,14.70
2018-05-06T05:17:27.891Z,14.70
2018-05-06T05:19:53.914Z,14.70
2018-05-06T05:22:19.935Z,14.70
2018-05-06T05:24:46.883Z,14.70
2018-05-06T05:27:12.851Z,14.70
2018-05-06T05:29:38.904Z,14.70
2018-05-06T05:32:04.873Z,14.60
2018-05-06T05:34:30.949Z,14.60
2018-05-06T05:36:57.028Z,14.60
2018-05-06T05:39:23.043Z,14.70
2018-05-06T05:41:49.080Z,14.70
2018-05-06T05:44:15.061Z,14.70
2018-05-06T05:46:41.048Z,14.80
2018-05-06T05:49:07.039Z,14.70
2018-05-06T05:51:33.036Z,14.80
2018-05-06T05:53:59.067Z,15.00
2018-05-06T05:56:25.112Z,15.20
2018-05-06T05:58:51.096Z,15.30
2018-05-06T06:01:48.187Z,15.30
2018-05-06T06:04:14.201Z,15.20
2018-05-06T06:06:40.190Z,15.20
2018-05-06T06:09:06.224Z,15.20
2018-05-06T06:11:32.245Z,15.10
2018-05-06T06:13:58.297Z,15.30
2018-05-06T06:16:24.283Z,15.50
2018-05-06T06:18:50.298Z,15.70
2018-05-06T06:21:16.297Z,15.80
2018-05-06T06:23:42.347Z,15.90
2018-05-06T06:26:08.378Z,15.90
2018-05-06T06:28:34.349Z,15.90
2018-05-06T06:31:00.330Z,16.10
2018-05-06T06:33:26.393Z,16.10
2018-05-06T06:35:52.387Z,16.20
2018-05-06T06:38:18.567Z,16.20
2018-05-06T06:40:50.125Z,16.10
2018-05-06T06:43:16.166Z,16.10
2018-05-06T06:45:42.197Z,16.10
2018-05-06T06:48:08.198Z,16.10
2018-05-06T06:50:34.127Z,16.30
2018-05-06T06:53:00.140Z,16.40
2018-05-06T06:55:26.219Z,16.60
2018-05-06T06:57:52.209Z,16.70
2018-05-06T07:00:18.429Z,16.90
2018-05-06T07:02:44.444Z,17.00
2018-05-06T07:05:10.580Z,17.10
2018-05-06T07:07:36.820Z,17.20
2018-05-06T07:10:02.836Z,17.10
2018-05-06T07:12:28.912Z,17.10
2018-05-06T07:14:55.013Z,17.10
2018-05-06T07:17:21.016Z,17.20
2018-05-06T07:19:46.996Z,17.30
2018-05-06T07:22:13.011Z,17.40
2018-05-06T07:24:39.013Z,17.50
2018-05-06T07:27:04.969Z,17.60
2018-05-06T07:29:30.989Z,17.70
2018-05-06T07:31:56.984Z,17.60
2018-05-06T07:34:22.992Z,17.70
2018-05-06T07:36:48.945Z,17.80
2018-05-06T07:39:14.938Z,18.00
2018-05-06T07:41:40.956Z,18.00
2018-05-06T07:44:06.930Z,18.20
2018-05-06T07:46:32.927Z,18.20
2018-05-06T07:48:59.119Z,18.30
2018-05-06T07:51:25.141Z,18.30
2018-05-06T07:53:51.184Z,18.20
2018-05-06T07:56:17.164Z,18.20
2018-05-06T07:58:43.242Z,18.10
2018-05-06T08:01:09.229Z,18.20
2018-05-06T08:03:35.473Z,18.20
2018-05-06T08:06:01.421Z,18.40
2018-05-06T08:08:27.724Z,18.40
2018-05-06T08:10:55.394Z,18.60
2018-05-06T08:13:22.015Z,18.60
2018-05-06T08:15:48.968Z,18.70
2018-05-06T08:18:15.221Z,18.80
2018-05-06T08:20:41.282Z,18.80
2018-05-06T08:23:07.390Z,18.90
2018-05-06T08:42:17.820Z,19.10
2018-05-06T08:44:44.115Z,19.40
2018-05-06T08:47:11.223Z,19.60
2018-05-06T08:49:39.433Z,19.60
2018-05-06T08:52:05.852Z,19.70
2018-05-06T08:54:32.088Z,19.70
2018-05-06T08:56:59.201Z,19.90
2018-05-06T08:59:25.388Z,19.90
2018-05-06T09:01:51.533Z,20.10
2018-05-06T09:04:17.574Z,20.20
2018-05-06T09:06:44.257Z,20.00
2018-05-06T09:09:10.282Z,19.70
2018-05-06T09:11:36.313Z,19.70
2018-05-06T09:14:02.361Z,19.90
2018-05-06T09:16:28.339Z,20.00
2018-05-06T09:18:54.384Z,20.20
2018-05-06T09:21:20.502Z,20.30
2018-05-06T09:23:46.841Z,20.10
2018-05-06T09:26:13.158Z,20.20
2018-05-06T09:28:39.142Z,20.30
2018-05-06T09:31:05.302Z,20.30
2018-05-06T09:33:31.388Z,20.40
2018-05-06T09:35:57.663Z,20.70
2018-05-06T09:38:24.695Z,20.80
2018-05-06T09:40:50.735Z,21.00
2018-05-06T09:43:16.856Z,21.20
2018-05-06T09:45:43.004Z,21.40
2018-05-06T09:48:09.912Z,21.50
2018-05-06T09:50:36.063Z,21.50
2018-05-06T09:53:03.002Z,21.60
2018-05-06T09:55:29.000Z,21.70
2018-05-06T09:57:55.122Z,21.70
2018-05-06T10:00:26.169Z,21.70
2018-05-06T10:02:53.327Z,21.70
2018-05-06T10:05:22.675Z,21.90
2018-05-06T10:07:53.842Z,21.90
2018-05-06T10:10:23.806Z,21.90
2018-05-06T10:12:49.955Z,21.90
2018-05-06T10:15:16.159Z,21.80
2018-05-06T10:17:42.203Z,21.90
2018-05-06T10:20:08.393Z,22.10
2018-05-06T10:22:44.518Z,22.20
2018-05-06T10:25:13.025Z,22.10
2018-05-06T10:27:39.229Z,22.40
2018-05-06T10:30:05.946Z,22.40
2018-05-06T10:32:33.104Z,22.60
2018-05-06T10:49:09.193Z,23.70
2018-05-06T10:51:35.104Z,23.10
2018-05-06T10:54:01.022Z,23.00
2018-05-06T10:56:26.980Z,23.20
2018-05-06T10:58:52.988Z,23.20
2018-05-06T11:01:18.923Z,23.20
2018-05-06T11:03:44.887Z,23.20
2018-05-06T11:06:17.366Z,23.50
2018-05-06T11:08:43.466Z,24.00
2018-05-06T11:11:09.482Z,24.30
2018-05-06T11:13:35.387Z,24.40
2018-05-06T11:16:01.441Z,24.20
2018-05-06T11:18:27.435Z,24.30
2018-05-06T11:20:53.397Z,24.40
2018-05-06T11:23:19.354Z,24.20
2018-05-06T11:25:45.375Z,24.00
2018-05-06T11:28:11.398Z,24.30
2018-05-06T11:30:37.353Z,24.70
2018-05-06T11:33:03.346Z,24.90
2018-05-06T11:35:29.288Z,24.80
2018-05-06T11:37:55.342Z,24.70
2018-05-06T11:40:21.292Z,25.00
2018-05-06T11:42:47.256Z,25.30
2018-05-06T11:45:13.261Z,25.50
2018-05-06T11:47:39.281Z,25.60
2018-05-06T11:50:05.259Z,25.70
2018-05-06T11:52:31.232Z,25.70
2018-05-06T11:54:57.232Z,25.80
2018-05-06T11:57:23.298Z,25.90
2018-05-06T11:59:49.292Z,26.00
2018-05-06T12:02:15.298Z,26.10
2018-05-06T12:04:41.278Z,26.10
2018-05-06T12:07:07.326Z,26.00
2018-05-06T12:09:34.008Z,26.40
2018-05-06T12:12:00.926Z,26.30
2018-05-06T12:14:28.401Z,26.30
2018-05-06T12:16:54.420Z,26.30
2018-05-06T12:19:20.416Z,26.40
2018-05-06T12:21:47.368Z,26.60
2018-05-06T12:24:13.374Z,26.80
2018-05-06T12:26:39.413Z,27.00
2018-05-06T12:29:05.448Z,27.00
2018-05-06T12:31:31.423Z,27.10
2018-05-06T12:33:58.420Z,27.30
2018-05-06T12:36:24.493Z,27.20
2018-05-06T12:38:50.466Z,27.50
2018-05-06T12:41:16.480Z,27.50
2018-05-06T12:43:42.470Z,27.60
2018-05-06T12:46:08.618Z,27.70
2018-05-06T12:48:34.746Z,27.50
2018-05-06T12:51:00.848Z,27.50
2018-05-06T12:53:26.986Z,27.70
2018-05-06T12:55:52.967Z,27.80
2018-05-06T12:58:18.934Z,27.70
2018-05-06T13:00:45.244Z,27.60
2018-05-06T13:03:11.280Z,27.60
2018-05-06T13:05:37.309Z,27.90
2018-05-06T13:08:03.276Z,28.20
2018-05-06T13:10:29.269Z,28.20
2018-05-06T13:12:55.221Z,28.30
2018-05-06T13:15:21.236Z,28.40
2018-05-06T13:17:47.265Z,28.40
2018-05-06T13:20:13.324Z,28.50
2018-05-06T13:22:39.350Z,28.60
2018-05-06T13:25:05.447Z,28.60
2018-05-06T13:27:31.409Z,28.90
2018-05-06T13:29:57.415Z,28.90
2018-05-06T13:32:23.421Z,28.30
2018-05-06T13:34:49.424Z,28.40
2018-05-06T13:37:15.408Z,28.50
2018-05-06T13:39:41.410Z,28.70
2018-05-06T13:42:07.393Z,29.00
2018-05-06T13:44:33.497Z,29.00
2018-05-06T13:46:59.581Z,29.10
2018-05-06T13:49:25.565Z,29.10
2018-05-06T13:51:51.585Z,29.10
2018-05-06T13:54:17.552Z,29.20
2018-05-06T13:56:43.501Z,29.00
2018-05-06T13:59:09.549Z,29.10
2018-05-06T14:01:35.569Z,29.30
2018-05-06T14:04:02.574Z,29.40
2018-05-06T14:06:28.669Z,29.40
2018-05-06T14:08:54.694Z,29.60
2018-05-06T14:11:21.510Z,29.70
2018-05-06T14:13:47.501Z,29.80
2018-05-06T14:16:13.468Z,30.00
2018-05-06T14:18:39.460Z,30.10
2018-05-06T14:21:05.437Z,29.90
2018-05-06T14:23:31.510Z,30.00
2018-05-06T14:25:57.527Z,30.00
2018-05-06T14:28:23.570Z,29.90
2018-05-06T14:30:49.586Z,29.70
2018-05-06T14:33:15.595Z,29.70
2018-05-06T14:35:41.581Z,29.60
2018-05-06T14:38:07.567Z,29.30
2018-05-06T14:40:33.829Z,29.50
2018-05-06T14:42:59.824Z,29.80
2018-05-06T14:45:25.925Z,30.10
2018-05-06T14:48:04.584Z,30.30
2018-05-06T14:50:30.794Z,30.30
2018-05-06T14:52:56.902Z,30.30
2018-05-06T14:55:23.012Z,30.50
2018-05-06T15:12:01.469Z,30.80
2018-05-06T15:14:34.541Z,31.00
2018-05-06T15:17:00.545Z,31.10
2018-05-06T15:19:26.582Z,30.80
2018-05-06T15:21:52.598Z,30.40
2018-05-06T15:24:18.571Z,30.00
2018-05-06T15:26:44.622Z,30.20
2018-05-06T15:29:10.648Z,30.20
2018-05-06T15:31:36.668Z,30.40
2018-05-06T15:34:03.759Z,30.40
2018-05-06T15:36:29.827Z,30.60
2018-05-06T15:38:56.529Z,30.50
2018-05-06T15:41:22.648Z,30.30
2018-05-06T15:43:48.880Z,30.40
2018-05-06T15:46:14.949Z,30.40
2018-05-06T15:48:41.059Z,30.60
2018-05-06T15:51:07.370Z,30.90
2018-05-06T15:53:33.497Z,31.20
2018-05-06T15:55:59.582Z,31.10
2018-05-06T15:58:25.743Z,31.00
2018-05-06T16:00:51.840Z,31.20
2018-05-06T16:03:30.203Z,31.30
2018-05-06T16:05:56.324Z,31.10
2018-05-06T16:08:22.391Z,31.00
2018-05-06T16:10:50.515Z,30.90
2018-05-06T16:13:17.848Z,31.00
2018-05-06T16:15:43.886Z,31.40
2018-05-06T16:18:10.018Z,31.70
2018-05-06T16:20:36.812Z,31.70
2018-05-06T16:23:02.946Z,31.20
2018-05-06T16:25:29.970Z,31.10
2018-05-06T16:27:56.054Z,31.00
2018-05-06T16:30:22.172Z,30.20
2018-05-06T16:47:02.193Z,30.10
2018-05-06T16:49:28.510Z,30.20
2018-05-06T16:51:54.721Z,30.40
2018-05-06T16:54:20.919Z,30.80
2018-05-06T16:56:46.972Z,30.90
2018-05-06T16:59:13.727Z,30.90
2018-05-06T17:01:40.012Z,30.60
2018-05-06T17:04:06.138Z,30.40
2018-05-06T17:06:32.991Z,30.10
2018-05-06T17:09:03.354Z,30.50
2018-05-06T17:11:29.436Z,30.40
2018-05-06T17:13:55.448Z,30.70
2018-05-06T17:16:21.696Z,30.90
2018-05-06T17:18:47.956Z,30.80
2018-05-06T17:21:14.124Z,30.90
2018-05-06T17:23:40.640Z,30.80
2018-05-06T17:26:07.220Z,30.80
2018-05-06T17:28:33.302Z,30.90
2018-05-06T17:31:00.701Z,30.90
2018-05-06T17:33:26.728Z,31.00
2018-05-06T17:35:52.795Z,31.10
2018-05-06T17:52:32.230Z,30.70
2018-05-06T17:54:58.275Z,31.10
2018-05-06T17:57:24.590Z,30.70
2018-05-06T17:59:50.729Z,30.20
2018-05-06T18:02:16.859Z,29.50
2018-05-06T18:04:42.893Z,29.50
2018-05-06T18:07:09.408Z,29.90
2018-05-06T18:09:35.416Z,30.60
2018-05-06T18:12:02.212Z,31.00
2018-05-06T18:14:28.928Z,30.90
2018-05-06T18:16:55.037Z,31.20
2018-05-06T18:19:21.147Z,31.10
2018-05-06T18:21:48.318Z,31.10
2018-05-06T18:24:14.391Z,30.40
2018-05-06T18:26:41.554Z,29.30
2018-05-06T18:29:07.711Z,28.60
2018-05-06T18:31:33.732Z,27.80
2018-05-06T18:34:00.125Z,27.30
2018-05-06T18:36:26.220Z,26.60
2018-05-06T18:38:52.375Z,26.00
2018-05-06T18:41:18.393Z,25.70
2018-05-06T18:43:44.404Z,25.60
2018-05-06T18:46:11.263Z,25.50
2018-05-06T18:48:37.304Z,25.30
2018-05-06T18:51:03.361Z,25.10
2018-05-06T18:53:29.490Z,24.90
2018-05-06T18:55:55.976Z,24.80
2018-05-06T18:58:22.727Z,24.70
2018-05-06T19:00:48.731Z,24.60
2018-05-06T19:03:16.969Z,24.50
2018-05-06T19:05:43.506Z,24.40
2018-05-06T19:08:11.902Z,24.20
2018-05-06T19:10:38.281Z,23.80
2018-05-06T19:13:04.362Z,23.70
2018-05-06T19:15:30.612Z,23.70
2018-05-06T19:17:56.808Z,23.60
2018-05-06T19:20:23.669Z,23.60
2018-05-06T19:22:50.709Z,23.40
2018-05-06T19:25:16.884Z,23.30
2018-05-06T19:27:43.805Z,23.20
2018-05-06T19:30:10.742Z,23.10
2018-05-06T19:32:36.961Z,23.00
2018-05-06T19:35:03.003Z,22.90
2018-05-06T19:37:29.139Z,22.90
2018-05-06T19:39:59.945Z,22.80
2018-05-06T19:42:37.628Z,22.70
2018-05-06T19:45:04.297Z,22.50
2018-05-06T19:47:30.454Z,22.40
2018-05-06T20:06:44.170Z,22.20
2018-05-06T20:09:11.043Z,22.20
2018-05-06T20:11:40.498Z,22.20
2018-05-06T20:14:06.612Z,22.10
2018-05-06T20:16:33.673Z,22.10
2018-05-06T20:18:59.807Z,21.90
2018-05-06T20:21:26.134Z,21.80
2018-05-06T20:23:52.612Z,21.70
2018-05-06T20:26:19.144Z,21.70
2018-05-06T20:28:45.566Z,21.60
2018-05-06T20:31:11.643Z,21.40
2018-05-06T20:33:37.630Z,21.40
2018-05-06T20:36:04.903Z,21.30
2018-05-06T20:38:31.884Z,21.20
2018-05-06T20:40:58.247Z,21.10
2018-05-06T20:43:24.240Z,21.10
2018-05-06T20:45:50.287Z,21.10
2018-05-06T20:48:16.300Z,21.00
2018-05-06T20:50:42.311Z,20.90
2018-05-06T21:09:53.516Z,20.40
2018-05-06T21:12:19.598Z,20.30
2018-05-06T21:14:46.527Z,20.10
2018-05-06T21:17:12.654Z,20.00
2018-05-06T21:19:38.750Z,19.90
2018-05-06T21:22:04.772Z,19.90
2018-05-06T21:24:31.861Z,19.90
2018-05-06T21:26:58.320Z,19.90
2018-05-06T21:29:24.543Z,19.90
2018-05-06T21:31:50.661Z,19.90
2018-05-06T21:34:16.633Z,19.90
2018-05-06T21:36:42.708Z,19.90
2018-05-06T21:39:08.759Z,20.00
2018-05-06T21:41:34.746Z,20.00
2018-05-06T21:44:00.839Z,19.90
2018-05-06T21:46:26.949Z,20.00
2018-05-06T21:48:53.011Z,20.00
2018-05-06T21:51:19.028Z,20.00
2018-05-06T21:53:45.073Z,20.00
2018-05-06T21:56:11.133Z,20.00
2018-05-06T21:58:37.292Z,19.80
2018-05-06T22:01:05.183Z,19.70
2018-05-06T22:03:31.193Z,19.70
2018-05-06T22:05:57.283Z,19.60
2018-05-06T22:08:23.304Z,19.50
2018-05-06T22:10:49.393Z,19.50
2018-05-06T22:13:15.590Z,19.40
2018-05-06T22:15:41.805Z,19.30
2018-05-06T22:18:07.856Z,19.30
2018-05-06T22:20:33.905Z,19.30
2018-05-06T22:23:00.043Z,19.30
2018-05-06T22:25:26.131Z,19.30
2018-05-06T22:27:52.257Z,19.30
2018-05-06T22:30:18.430Z,19.30
2018-05-06T22:32:44.559Z,19.30
2018-05-06T22:35:10.569Z,19.30
2018-05-06T22:37:36.579Z,19.30
2018-05-06T22:40:02.681Z,19.30
2018-05-06T22:42:28.719Z,19.30
2018-05-06T22:44:54.704Z,19.30
2018-05-06T22:47:20.688Z,19.20
2018-05-06T22:49:46.703Z,19.10
2018-05-06T22:52:12.684Z,19.10
2018-05-06T22:54:38.693Z,19.00
2018-05-06T22:57:04.633Z,19.00
2018-05-06T22:59:30.629Z,19.10
2018-05-06T23:01:56.584Z,19.00
2018-05-06T23:04:22.740Z,18.90
2018-05-06T23:06:48.726Z,18.80
2018-05-06T23:09:14.720Z,18.60
2018-05-06T23:11:40.717Z,18.60
2018-05-06T23:14:06.809Z,18.50
2018-05-06T23:16:32.819Z,18.30
2018-05-06T23:18:58.795Z,18.30
2018-05-06T23:21:24.831Z,18.30
2018-05-06T23:23:50.856Z,18.30
2018-05-06T23:26:16.953Z,18.30
2018-05-06T23:28:43.028Z,18.40
2018-05-06T23:31:09.590Z,18.40
2018-05-06T23:50:19.574Z,18.20
2018-05-06T23:52:45.598Z,18.20
2018-05-06T23:55:11.667Z,18.00
2018-05-06T23:57:37.604Z,18.00
